sensor_id;sensor_type;location;lat;lon;timestamp;P1;durP1;ratioP1;P2;durP2;ratioP2
26977;SDS011;56314;48.088;11.642;2022-11-20T09:04:52;9.02;;;1.90;;
26977;SDS011;56314;48.088;11.642;2022-11-20T09:07:18;3.90;;;1.98;;
26977;SDS011;56314;48.088;11.642;2022-11-20T09:09:44;2.33;;;1.88;;
26977;SDS011;56314;48.088;11.642;2022-11-20T09:12:09;3.30;;;1.92;;
26977;SDS011;56314;48.088;11.642;2022-11-20T09:14:35;2.13;;;1.52;;
26977;SDS011;56314;48.088;11.642;2022-11-20T09:17:00;1.95;;;1.70;;
26977;SDS011;56314;48.088;11.642;2022-11-20T09:19:25;3.80;;;1.77;;
26977;SDS011;56314;48.088;11.642;2022-11-20T09:21:51;2.15;;;1.85;;
26977;SDS011;56314;48.088;11.642;2022-11-20T09:24:17;2.17;;;1.98;;
26977;SDS011;56314;48.088;11.642;2022-11-20T09:26:43;3.13;;;1.70;;
26977;SDS011;56314;48.088;11.642;2022-11-20T09:29:08;2.25;;;1.60;;
26977;SDS011;56314;48.088;11.642;2022-11-20T09:31:34;2.08;;;1.63;;
26977;SDS011;56314;48.088;11.642;2022-11-20T09:33:59;2.53;;;1.70;;
26977;SDS011;56314;48.088;11.642;2022-11-20T09:36:24;2.03;;;1.60;;
26977;SDS011;56314;48.088;11.642;2022-11-20T09:38:50;1.70;;;1.50;;
26977;SDS011;56314;48.088;11.642;2022-11-20T09:43:58;2.05;;;1.48;;
26977;SDS011;56314;48.088;11.642;2022-11-20T09:46:48;2.58;;;1.67;;
26977;SDS011;56314;48.088;11.642;2022-11-20T09:52:26;3.08;;;1.83;;
26977;SDS011;56314;48.088;11.642;2022-11-20T09:54:57;1.88;;;1.50;;
26977;SDS011;56314;48.088;11.642;2022-11-20T09:57:32;2.25;;;1.60;;
26977;SDS011;56314;48.088;11.642;2022-11-20T10:00:02;2.28;;;1.67;;
26977;SDS011;56314;48.088;11.642;2022-11-20T10:02:30;3.28;;;1.40;;
26977;SDS011;56314;48.088;11.642;2022-11-20T10:05:11;1.45;;;1.20;;
26977;SDS011;56314;48.088;11.642;2022-11-20T10:10:25;2.33;;;1.83;;
26977;SDS011;56314;48.088;11.642;2022-11-20T10:13:12;2.38;;;1.50;;
26977;SDS011;56314;48.088;11.642;2022-11-20T10:24:34;1.42;;;1.30;;
26977;SDS011;56314;48.088;11.642;2022-11-20T10:29:47;3.45;;;2.03;;
26977;SDS011;56314;48.088;11.642;2022-11-20T10:32:27;2.25;;;1.42;;
26977;SDS011;56314;48.088;11.642;2022-11-20T10:35:07;2.10;;;1.52;;
26977;SDS011;56314;48.088;11.642;2022-11-20T10:37:40;1.80;;;1.27;;
26977;SDS011;56314;48.088;11.642;2022-11-20T10:42:48;1.40;;;1.30;;
26977;SDS011;56314;48.088;11.642;2022-11-20T10:47:49;3.97;;;1.20;;
26977;SDS011;56314;48.088;11.642;2022-11-20T10:50:18;1.52;;;1.15;;
26977;SDS011;56314;48.088;11.642;2022-11-20T11:01:04;1.30;;;0.90;;
26977;SDS011;56314;48.088;11.642;2022-11-20T11:03:31;1.05;;;0.90;;
26977;SDS011;56314;48.088;11.642;2022-11-20T11:06:03;1.75;;;0.98;;
26977;SDS011;56314;48.088;11.642;2022-11-20T11:08:39;1.30;;;1.00;;
26977;SDS011;56314;48.088;11.642;2022-11-20T11:11:27;1.35;;;1.17;;
26977;SDS011;56314;48.088;11.642;2022-11-20T11:13:53;1.42;;;1.02;;
26977;SDS011;56314;48.088;11.642;2022-11-20T11:16:29;2.47;;;1.10;;
26977;SDS011;56314;48.088;11.642;2022-11-20T11:19:11;1.30;;;1.20;;
26977;SDS011;56314;48.088;11.642;2022-11-20T11:21:38;1.30;;;1.13;;
26977;SDS011;56314;48.088;11.642;2022-11-20T11:24:14;1.55;;;1.00;;
26977;SDS011;56314;48.088;11.642;2022-11-20T11:26:55;2.05;;;1.20;;
26977;SDS011;56314;48.088;11.642;2022-11-20T11:29:22;4.55;;;2.33;;
26977;SDS011;56314;48.088;11.642;2022-11-20T11:31:48;2.35;;;1.42;;
26977;SDS011;56314;48.088;11.642;2022-11-20T11:34:15;2.45;;;1.48;;
26977;SDS011;56314;48.088;11.642;2022-11-20T11:36:42;1.25;;;1.15;;
26977;SDS011;56314;48.088;11.642;2022-11-20T11:39:18;1.27;;;1.08;;
26977;SDS011;56314;48.088;11.642;2022-11-20T11:41:45;2.33;;;1.25;;
26977;SDS011;56314;48.088;11.642;2022-11-20T11:47:00;2.40;;;1.20;;
26977;SDS011;56314;48.088;11.642;2022-11-20T11:49:28;1.45;;;1.27;;
26977;SDS011;56314;48.088;11.642;2022-11-20T11:54:26;1.30;;;1.20;;
26977;SDS011;56314;48.088;11.642;2022-11-20T11:56:58;1.40;;;1.00;;
26977;SDS011;56314;48.088;11.642;2022-11-20T11:59:43;2.35;;;1.40;;
26977;SDS011;56314;48.088;11.642;2022-11-20T12:02:36;1.65;;;1.30;;
26977;SDS011;56314;48.088;11.642;2022-11-20T12:05:27;3.25;;;1.42;;
26977;SDS011;56314;48.088;11.642;2022-11-20T12:15:59;2.47;;;1.30;;
26977;SDS011;56314;48.088;11.642;2022-11-20T12:18:26;5.10;;;1.20;;
26977;SDS011;56314;48.088;11.642;2022-11-20T12:21:02;1.40;;;1.30;;
26977;SDS011;56314;48.088;11.642;2022-11-20T12:23:50;1.95;;;1.70;;
26977;SDS011;56314;48.088;11.642;2022-11-20T12:29:32;2.50;;;1.70;;
26977;SDS011;56314;48.088;11.642;2022-11-20T12:40:32;2.90;;;1.40;;
26977;SDS011;56314;48.088;11.642;2022-11-20T12:51:56;2.83;;;1.60;;
26977;SDS011;56314;48.088;11.642;2022-11-20T12:59:54;2.33;;;1.90;;
26977;SDS011;56314;48.088;11.642;2022-11-20T13:07:43;2.13;;;1.65;;
26977;SDS011;56314;48.088;11.642;2022-11-20T13:10:57;2.35;;;1.58;;
26977;SDS011;56314;48.088;11.642;2022-11-20T13:13:25;1.50;;;1.40;;
26977;SDS011;56314;48.088;11.642;2022-11-20T13:18:36;1.63;;;1.40;;
26977;SDS011;56314;48.088;11.642;2022-11-20T13:21:16;1.95;;;1.73;;
26977;SDS011;56314;48.088;11.642;2022-11-20T13:23:43;3.28;;;1.60;;
26977;SDS011;56314;48.088;11.642;2022-11-20T13:26:16;2.28;;;1.63;;
26977;SDS011;56314;48.088;11.642;2022-11-20T13:28:47;1.45;;;1.35;;
26977;SDS011;56314;48.088;11.642;2022-11-20T13:31:31;1.55;;;1.38;;
26977;SDS011;56314;48.088;11.642;2022-11-20T13:36:26;2.25;;;1.65;;
26977;SDS011;56314;48.088;11.642;2022-11-20T13:38:54;2.28;;;1.60;;
26977;SDS011;56314;48.088;11.642;2022-11-20T13:41:24;1.92;;;1.73;;
26977;SDS011;56314;48.088;11.642;2022-11-20T13:44:04;2.67;;;1.77;;
26977;SDS011;56314;48.088;11.642;2022-11-20T13:46:36;2.05;;;1.90;;
26977;SDS011;56314;48.088;11.642;2022-11-20T13:49:07;5.03;;;1.80;;
26977;SDS011;56314;48.088;11.642;2022-11-20T13:54:17;2.25;;;1.70;;
26977;SDS011;56314;48.088;11.642;2022-11-20T13:56:54;1.85;;;1.52;;
26977;SDS011;56314;48.088;11.642;2022-11-20T13:59:49;1.90;;;1.52;;
26977;SDS011;56314;48.088;11.642;2022-11-20T14:02:18;1.90;;;1.50;;
26977;SDS011;56314;48.088;11.642;2022-11-20T14:04:46;3.33;;;1.58;;
26977;SDS011;56314;48.088;11.642;2022-11-20T14:07:15;2.08;;;1.42;;
26977;SDS011;56314;48.088;11.642;2022-11-20T14:09:53;2.22;;;1.55;;
26977;SDS011;56314;48.088;11.642;2022-11-20T14:12:22;1.50;;;1.40;;
26977;SDS011;56314;48.088;11.642;2022-11-20T14:14:53;2.08;;;1.60;;
26977;SDS011;56314;48.088;11.642;2022-11-20T14:17:21;1.92;;;1.70;;
26977;SDS011;56314;48.088;11.642;2022-11-20T14:19:49;2.05;;;1.50;;
26977;SDS011;56314;48.088;11.642;2022-11-20T14:24:49;3.60;;;2.03;;
26977;SDS011;56314;48.088;11.642;2022-11-20T14:27:33;6.38;;;1.85;;
26977;SDS011;56314;48.088;11.642;2022-11-20T14:30:01;2.63;;;1.45;;
26977;SDS011;56314;48.088;11.642;2022-11-20T14:32:28;1.65;;;1.50;;
26977;SDS011;56314;48.088;11.642;2022-11-20T14:34:55;2.30;;;2.05;;
26977;SDS011;56314;48.088;11.642;2022-11-20T14:37:27;2.90;;;1.50;;
26977;SDS011;56314;48.088;11.642;2022-11-20T14:39:58;2.50;;;1.80;;
26977;SDS011;56314;48.088;11.642;2022-11-20T14:42:26;1.70;;;1.60;;
26977;SDS011;56314;48.088;11.642;2022-11-20T14:44:55;2.20;;;1.45;;
26977;SDS011;56314;48.088;11.642;2022-11-20T14:47:23;1.65;;;1.40;;
26977;SDS011;56314;48.088;11.642;2022-11-20T14:49:51;2.63;;;1.52;;
26977;SDS011;56314;48.088;11.642;2022-11-20T14:52:22;3.33;;;1.65;;
26977;SDS011;56314;48.088;11.642;2022-11-20T14:54:49;2.58;;;1.80;;
26977;SDS011;56314;48.088;11.642;2022-11-20T14:57:24;2.35;;;1.65;;
26977;SDS011;56314;48.088;11.642;2022-11-20T14:59:51;4.13;;;1.52;;
26977;SDS011;56314;48.088;11.642;2022-11-20T15:02:29;1.55;;;1.20;;
26977;SDS011;56314;48.088;11.642;2022-11-20T15:04:58;1.52;;;1.33;;
26977;SDS011;56314;48.088;11.642;2022-11-20T15:07:33;1.33;;;1.17;;
26977;SDS011;56314;48.088;11.642;2022-11-20T15:10:13;0.80;;;0.80;;
26977;SDS011;56314;48.088;11.642;2022-11-20T15:12:47;2.25;;;1.15;;
26977;SDS011;56314;48.088;11.642;2022-11-20T15:15:14;1.00;;;0.90;;
26977;SDS011;56314;48.088;11.642;2022-11-20T15:17:43;1.98;;;1.10;;
26977;SDS011;56314;48.088;11.642;2022-11-20T15:20:13;2.60;;;1.50;;
26977;SDS011;56314;48.088;11.642;2022-11-20T15:22:40;2.45;;;1.20;;
26977;SDS011;56314;48.088;11.642;2022-11-20T15:25:13;1.65;;;1.27;;
26977;SDS011;56314;48.088;11.642;2022-11-20T15:27:44;2.25;;;1.30;;
26977;SDS011;56314;48.088;11.642;2022-11-20T15:30:15;2.55;;;1.73;;
26977;SDS011;56314;48.088;11.642;2022-11-20T15:32:43;2.05;;;1.20;;
26977;SDS011;56314;48.088;11.642;2022-11-20T15:35:09;1.35;;;1.10;;
26977;SDS011;56314;48.088;11.642;2022-11-20T15:37:35;2.25;;;1.30;;
26977;SDS011;56314;48.088;11.642;2022-11-20T15:40:01;1.85;;;1.40;;
26977;SDS011;56314;48.088;11.642;2022-11-20T15:42:27;1.92;;;1.27;;
26977;SDS011;56314;48.088;11.642;2022-11-20T15:44:52;2.38;;;1.33;;
26977;SDS011;56314;48.088;11.642;2022-11-20T15:47:18;1.60;;;1.23;;
26977;SDS011;56314;48.088;11.642;2022-11-20T15:49:50;1.48;;;1.30;;
26977;SDS011;56314;48.088;11.642;2022-11-20T15:52:15;1.55;;;1.05;;
26977;SDS011;56314;48.088;11.642;2022-11-20T15:54:41;3.67;;;1.30;;
26977;SDS011;56314;48.088;11.642;2022-11-20T15:57:06;2.38;;;1.38;;
26977;SDS011;56314;48.088;11.642;2022-11-20T15:59:32;3.40;;;1.35;;
26977;SDS011;56314;48.088;11.642;2022-11-20T16:01:57;1.80;;;1.35;;
26977;SDS011;56314;48.088;11.642;2022-11-20T16:04:22;1.65;;;1.35;;
26977;SDS011;56314;48.088;11.642;2022-11-20T16:06:48;1.48;;;1.30;;
26977;SDS011;56314;48.088;11.642;2022-11-20T16:09:13;2.35;;;1.30;;
26977;SDS011;56314;48.088;11.642;2022-11-20T16:11:38;4.00;;;1.58;;
26977;SDS011;56314;48.088;11.642;2022-11-20T16:14:04;2.30;;;1.70;;
26977;SDS011;56314;48.088;11.642;2022-11-20T16:16:49;2.13;;;1.48;;
26977;SDS011;56314;48.088;11.642;2022-11-20T16:19:15;1.60;;;1.50;;
26977;SDS011;56314;48.088;11.642;2022-11-20T16:21:41;3.20;;;1.60;;
26977;SDS011;56314;48.088;11.642;2022-11-20T16:24:07;1.75;;;1.35;;
26977;SDS011;56314;48.088;11.642;2022-11-20T16:26:35;1.63;;;1.50;;
26977;SDS011;56314;48.088;11.642;2022-11-20T16:29:02;3.75;;;1.80;;
26977;SDS011;56314;48.088;11.642;2022-11-20T16:31:30;1.77;;;1.67;;
26977;SDS011;56314;48.088;11.642;2022-11-20T16:33:57;2.83;;;1.98;;
26977;SDS011;56314;48.088;11.642;2022-11-20T16:36:25;4.35;;;2.00;;
26977;SDS011;56314;48.088;11.642;2022-11-20T16:38:56;3.00;;;2.00;;
26977;SDS011;56314;48.088;11.642;2022-11-20T16:41:23;4.85;;;2.22;;
26977;SDS011;56314;48.088;11.642;2022-11-20T16:43:51;2.45;;;1.75;;
26977;SDS011;56314;48.088;11.642;2022-11-20T16:46:19;3.35;;;1.73;;
26977;SDS011;56314;48.088;11.642;2022-11-20T16:48:53;2.03;;;1.70;;
26977;SDS011;56314;48.088;11.642;2022-11-20T16:51:19;1.90;;;1.50;;
26977;SDS011;56314;48.088;11.642;2022-11-20T16:53:44;2.33;;;1.73;;
26977;SDS011;56314;48.088;11.642;2022-11-20T16:56:13;2.92;;;1.75;;
26977;SDS011;56314;48.088;11.642;2022-11-20T16:58:41;2.50;;;1.55;;
26977;SDS011;56314;48.088;11.642;2022-11-20T17:01:07;6.18;;;1.80;;
26977;SDS011;56314;48.088;11.642;2022-11-20T17:03:41;12.32;;;8.23;;
26977;SDS011;56314;48.088;11.642;2022-11-20T17:06:15;7.28;;;4.90;;
26977;SDS011;56314;48.088;11.642;2022-11-20T17:08:42;5.15;;;3.75;;
26977;SDS011;56314;48.088;11.642;2022-11-20T17:11:11;6.43;;;3.10;;
26977;SDS011;56314;48.088;11.642;2022-11-20T17:13:38;4.82;;;3.10;;
26977;SDS011;56314;48.088;11.642;2022-11-20T17:16:07;8.25;;;2.97;;
26977;SDS011;56314;48.088;11.642;2022-11-20T17:18:35;3.22;;;2.38;;
26977;SDS011;56314;48.088;11.642;2022-11-20T17:21:02;4.13;;;2.85;;
26977;SDS011;56314;48.088;11.642;2022-11-20T17:23:32;3.75;;;2.90;;
26977;SDS011;56314;48.088;11.642;2022-11-20T17:26:06;3.20;;;2.30;;
26977;SDS011;56314;48.088;11.642;2022-11-20T17:28:37;6.30;;;2.92;;
26977;SDS011;56314;48.088;11.642;2022-11-20T17:31:08;3.58;;;2.78;;
26977;SDS011;56314;48.088;11.642;2022-11-20T17:33:35;6.95;;;2.83;;
26977;SDS011;56314;48.088;11.642;2022-11-20T17:36:03;4.72;;;2.28;;
26977;SDS011;56314;48.088;11.642;2022-11-20T17:38:29;6.43;;;2.70;;
26977;SDS011;56314;48.088;11.642;2022-11-20T17:41:05;2.95;;;2.65;;
26977;SDS011;56314;48.088;11.642;2022-11-20T17:43:34;3.03;;;2.67;;
26977;SDS011;56314;48.088;11.642;2022-11-20T17:46:06;3.65;;;2.58;;
26977;SDS011;56314;48.088;11.642;2022-11-20T17:48:32;4.78;;;2.85;;
26977;SDS011;56314;48.088;11.642;2022-11-20T17:50:58;4.40;;;2.83;;
26977;SDS011;56314;48.088;11.642;2022-11-20T17:53:28;2.53;;;2.33;;
26977;SDS011;56314;48.088;11.642;2022-11-20T17:55:56;5.70;;;3.47;;
26977;SDS011;56314;48.088;11.642;2022-11-20T17:58:41;3.33;;;2.60;;
26977;SDS011;56314;48.088;11.642;2022-11-20T18:01:06;11.43;;;6.72;;
26977;SDS011;56314;48.088;11.642;2022-11-20T18:03:33;8.77;;;6.10;;
26977;SDS011;56314;48.088;11.642;2022-11-20T18:06:06;7.13;;;3.95;;
26977;SDS011;56314;48.088;11.642;2022-11-20T18:08:36;5.63;;;3.15;;
26977;SDS011;56314;48.088;11.642;2022-11-20T18:11:15;5.82;;;3.03;;
26977;SDS011;56314;48.088;11.642;2022-11-20T18:13:44;4.95;;;3.20;;
26977;SDS011;56314;48.088;11.642;2022-11-20T18:16:30;5.47;;;3.15;;
26977;SDS011;56314;48.088;11.642;2022-11-20T18:18:57;9.48;;;4.07;;
26977;SDS011;56314;48.088;11.642;2022-11-20T18:21:24;6.85;;;3.78;;
26977;SDS011;56314;48.088;11.642;2022-11-20T18:23:51;5.13;;;3.03;;
26977;SDS011;56314;48.088;11.642;2022-11-20T18:26:16;8.35;;;3.65;;
26977;SDS011;56314;48.088;11.642;2022-11-20T18:28:43;4.00;;;3.42;;
26977;SDS011;56314;48.088;11.642;2022-11-20T18:31:09;4.28;;;3.30;;
26977;SDS011;56314;48.088;11.642;2022-11-20T18:33:35;7.28;;;3.80;;
26977;SDS011;56314;48.088;11.642;2022-11-20T18:36:17;5.50;;;3.47;;
26977;SDS011;56314;48.088;11.642;2022-11-20T18:38:45;4.17;;;3.00;;
26977;SDS011;56314;48.088;11.642;2022-11-20T18:41:12;7.13;;;4.43;;
26977;SDS011;56314;48.088;11.642;2022-11-20T18:43:57;9.65;;;5.40;;
26977;SDS011;56314;48.088;11.642;2022-11-20T18:46:42;6.32;;;4.63;;
26977;SDS011;56314;48.088;11.642;2022-11-20T18:49:07;8.45;;;5.32;;
26977;SDS011;56314;48.088;11.642;2022-11-20T18:51:33;7.28;;;5.03;;
26977;SDS011;56314;48.088;11.642;2022-11-20T18:54:00;6.50;;;5.05;;
26977;SDS011;56314;48.088;11.642;2022-11-20T18:56:25;9.75;;;5.32;;
26977;SDS011;56314;48.088;11.642;2022-11-20T18:58:51;11.23;;;6.22;;
26977;SDS011;56314;48.088;11.642;2022-11-20T19:01:16;8.57;;;4.88;;
26977;SDS011;56314;48.088;11.642;2022-11-20T19:03:41;6.45;;;4.20;;
26977;SDS011;56314;48.088;11.642;2022-11-20T19:06:11;5.57;;;3.85;;
26977;SDS011;56314;48.088;11.642;2022-11-20T19:08:38;6.35;;;3.38;;
26977;SDS011;56314;48.088;11.642;2022-11-20T19:11:05;8.75;;;3.55;;
26977;SDS011;56314;48.088;11.642;2022-11-20T19:13:31;4.78;;;3.15;;
26977;SDS011;56314;48.088;11.642;2022-11-20T19:16:00;5.45;;;3.10;;
26977;SDS011;56314;48.088;11.642;2022-11-20T19:18:29;5.03;;;3.17;;
26977;SDS011;56314;48.088;11.642;2022-11-20T19:20:54;4.40;;;2.78;;
26977;SDS011;56314;48.088;11.642;2022-11-20T19:23:20;3.40;;;2.17;;
26977;SDS011;56314;48.088;11.642;2022-11-20T19:25:46;2.53;;;2.20;;
26977;SDS011;56314;48.088;11.642;2022-11-20T19:28:12;4.55;;;2.42;;
26977;SDS011;56314;48.088;11.642;2022-11-20T19:30:37;2.17;;;1.90;;
26977;SDS011;56314;48.088;11.642;2022-11-20T19:33:05;2.70;;;1.88;;
26977;SDS011;56314;48.088;11.642;2022-11-20T19:35:30;3.03;;;2.38;;
26977;SDS011;56314;48.088;11.642;2022-11-20T19:37:56;4.95;;;2.45;;
26977;SDS011;56314;48.088;11.642;2022-11-20T19:40:21;6.30;;;2.83;;
26977;SDS011;56314;48.088;11.642;2022-11-20T19:42:46;4.07;;;2.65;;
26977;SDS011;56314;48.088;11.642;2022-11-20T19:45:12;2.60;;;1.95;;
26977;SDS011;56314;48.088;11.642;2022-11-20T19:47:37;3.83;;;2.53;;
26977;SDS011;56314;48.088;11.642;2022-11-20T19:50:03;2.33;;;1.90;;
26977;SDS011;56314;48.088;11.642;2022-11-20T19:52:28;4.90;;;2.47;;
26977;SDS011;56314;48.088;11.642;2022-11-20T19:54:54;5.63;;;2.08;;
26977;SDS011;56314;48.088;11.642;2022-11-20T19:57:19;4.40;;;2.40;;
26977;SDS011;56314;48.088;11.642;2022-11-20T19:59:44;4.30;;;2.78;;
26977;SDS011;56314;48.088;11.642;2022-11-20T20:02:10;3.78;;;2.33;;
26977;SDS011;56314;48.088;11.642;2022-11-20T20:04:35;4.68;;;2.80;;
26977;SDS011;56314;48.088;11.642;2022-11-20T20:07:01;2.45;;;1.98;;
26977;SDS011;56314;48.088;11.642;2022-11-20T20:09:27;3.13;;;2.60;;
26977;SDS011;56314;48.088;11.642;2022-11-20T20:11:54;4.00;;;2.95;;
26977;SDS011;56314;48.088;11.642;2022-11-20T20:14:19;5.00;;;3.92;;
26977;SDS011;56314;48.088;11.642;2022-11-20T20:16:45;5.97;;;3.88;;
26977;SDS011;56314;48.088;11.642;2022-11-20T20:19:11;4.78;;;3.35;;
26977;SDS011;56314;48.088;11.642;2022-11-20T20:21:40;7.53;;;4.45;;
26977;SDS011;56314;48.088;11.642;2022-11-20T20:24:06;9.20;;;4.25;;
26977;SDS011;56314;48.088;11.642;2022-11-20T20:26:31;8.52;;;4.07;;
26977;SDS011;56314;48.088;11.642;2022-11-20T20:28:58;5.75;;;3.70;;
26977;SDS011;56314;48.088;11.642;2022-11-20T20:31:26;6.80;;;3.60;;
26977;SDS011;56314;48.088;11.642;2022-11-20T20:33:52;5.45;;;3.65;;
26977;SDS011;56314;48.088;11.642;2022-11-20T20:36:19;4.28;;;3.10;;
26977;SDS011;56314;48.088;11.642;2022-11-20T20:38:45;7.93;;;3.65;;
26977;SDS011;56314;48.088;11.642;2022-11-20T20:41:12;3.95;;;2.78;;
26977;SDS011;56314;48.088;11.642;2022-11-20T20:43:38;3.85;;;3.10;;
26977;SDS011;56314;48.088;11.642;2022-11-20T20:46:22;5.73;;;3.23;;
26977;SDS011;56314;48.088;11.642;2022-11-20T20:48:48;5.25;;;2.80;;
26977;SDS011;56314;48.088;11.642;2022-11-20T20:51:13;3.25;;;2.50;;
26977;SDS011;56314;48.088;11.642;2022-11-20T20:53:39;3.40;;;2.53;;
26977;SDS011;56314;48.088;11.642;2022-11-20T20:56:04;3.63;;;2.58;;
26977;SDS011;56314;48.088;11.642;2022-11-20T20:58:30;2.88;;;2.20;;
26977;SDS011;56314;48.088;11.642;2022-11-20T21:01:02;3.00;;;2.35;;
26977;SDS011;56314;48.088;11.642;2022-11-20T21:03:30;5.03;;;3.15;;
26977;SDS011;56314;48.088;11.642;2022-11-20T21:05:56;4.78;;;2.45;;
26977;SDS011;56314;48.088;11.642;2022-11-20T21:08:22;4.70;;;2.85;;
26977;SDS011;56314;48.088;11.642;2022-11-20T21:10:52;3.30;;;2.47;;
26977;SDS011;56314;48.088;11.642;2022-11-20T21:13:19;4.97;;;3.00;;
26977;SDS011;56314;48.088;11.642;2022-11-20T21:15:46;5.65;;;3.60;;
26977;SDS011;56314;48.088;11.642;2022-11-20T21:18:14;6.05;;;3.78;;
26977;SDS011;56314;48.088;11.642;2022-11-20T21:20:40;6.25;;;3.33;;
26977;SDS011;56314;48.088;11.642;2022-11-20T21:23:24;6.07;;;3.63;;
26977;SDS011;56314;48.088;11.642;2022-11-20T21:25:49;6.43;;;3.60;;
26977;SDS011;56314;48.088;11.642;2022-11-20T21:28:15;9.57;;;3.63;;
26977;SDS011;56314;48.088;11.642;2022-11-20T21:30:40;4.70;;;3.33;;
26977;SDS011;56314;48.088;11.642;2022-11-20T21:33:05;7.32;;;4.47;;
26977;SDS011;56314;48.088;11.642;2022-11-20T21:35:33;3.90;;;3.45;;
26977;SDS011;56314;48.088;11.642;2022-11-20T21:37:59;4.10;;;2.65;;
26977;SDS011;56314;48.088;11.642;2022-11-20T21:40:25;3.90;;;2.78;;
26977;SDS011;56314;48.088;11.642;2022-11-20T21:42:51;6.57;;;3.20;;
26977;SDS011;56314;48.088;11.642;2022-11-20T21:45:17;3.13;;;2.10;;
26977;SDS011;56314;48.088;11.642;2022-11-20T21:47:43;3.30;;;1.98;;
26977;SDS011;56314;48.088;11.642;2022-11-20T21:50:08;1.83;;;1.63;;
26977;SDS011;56314;48.088;11.642;2022-11-20T21:52:34;1.42;;;1.30;;
26977;SDS011;56314;48.088;11.642;2022-11-20T21:54:59;1.75;;;1.40;;
26977;SDS011;56314;48.088;11.642;2022-11-20T21:57:25;2.00;;;1.80;;
26977;SDS011;56314;48.088;11.642;2022-11-20T21:59:50;1.40;;;1.30;;
26977;SDS011;56314;48.088;11.642;2022-11-20T22:02:15;1.52;;;1.38;;
26977;SDS011;56314;48.088;11.642;2022-11-20T22:04:41;4.65;;;1.90;;
26977;SDS011;56314;48.088;11.642;2022-11-20T22:07:06;4.20;;;2.00;;
26977;SDS011;56314;48.088;11.642;2022-11-20T22:09:32;2.00;;;1.77;;
26977;SDS011;56314;48.088;11.642;2022-11-20T22:11:57;2.78;;;1.83;;
26977;SDS011;56314;48.088;11.642;2022-11-20T22:14:22;4.28;;;2.17;;
26977;SDS011;56314;48.088;11.642;2022-11-20T22:16:48;2.47;;;1.45;;
26977;SDS011;56314;48.088;11.642;2022-11-20T22:19:15;2.20;;;1.85;;
26977;SDS011;56314;48.088;11.642;2022-11-20T22:21:41;2.60;;;1.65;;
26977;SDS011;56314;48.088;11.642;2022-11-20T22:24:07;2.67;;;1.85;;
26977;SDS011;56314;48.088;11.642;2022-11-20T22:26:36;2.30;;;1.85;;
26977;SDS011;56314;48.088;11.642;2022-11-20T22:29:02;2.30;;;1.98;;
26977;SDS011;56314;48.088;11.642;2022-11-20T22:31:28;2.45;;;1.60;;
26977;SDS011;56314;48.088;11.642;2022-11-20T22:33:55;1.98;;;1.77;;
26977;SDS011;56314;48.088;11.642;2022-11-20T22:36:24;3.83;;;2.30;;
26977;SDS011;56314;48.088;11.642;2022-11-20T22:38:52;2.53;;;2.00;;
26977;SDS011;56314;48.088;11.642;2022-11-20T22:41:19;2.83;;;1.80;;
26977;SDS011;56314;48.088;11.642;2022-11-20T22:43:46;2.47;;;1.90;;
26977;SDS011;56314;48.088;11.642;2022-11-20T22:46:12;4.00;;;2.17;;
26977;SDS011;56314;48.088;11.642;2022-11-20T22:48:40;3.83;;;1.80;;
26977;SDS011;56314;48.088;11.642;2022-11-20T22:51:13;4.05;;;2.10;;
26977;SDS011;56314;48.088;11.642;2022-11-20T22:53:41;2.75;;;2.00;;
26977;SDS011;56314;48.088;11.642;2022-11-20T22:56:07;4.47;;;2.35;;
26977;SDS011;56314;48.088;11.642;2022-11-20T22:58:35;2.55;;;2.00;;
26977;SDS011;56314;48.088;11.642;2022-11-20T23:01:20;2.85;;;2.13;;
26977;SDS011;56314;48.088;11.642;2022-11-20T23:03:48;3.50;;;1.80;;
26977;SDS011;56314;48.088;11.642;2022-11-20T23:06:15;2.53;;;1.95;;
26977;SDS011;56314;48.088;11.642;2022-11-20T23:08:42;2.60;;;2.10;;
26977;SDS011;56314;48.088;11.642;2022-11-20T23:11:10;2.20;;;1.90;;
26977;SDS011;56314;48.088;11.642;2022-11-20T23:13:37;2.47;;;2.28;;
26977;SDS011;56314;48.088;11.642;2022-11-20T23:16:04;1.63;;;1.50;;
26977;SDS011;56314;48.088;11.642;2022-11-20T23:18:35;2.83;;;1.40;;
26977;SDS011;56314;48.088;11.642;2022-11-20T23:21:10;3.90;;;1.83;;
26977;SDS011;56314;48.088;11.642;2022-11-20T23:23:40;1.83;;;1.60;;
26977;SDS011;56314;48.088;11.642;2022-11-20T23:26:10;1.10;;;1.00;;
26977;SDS011;56314;48.088;11.642;2022-11-20T23:28:37;1.15;;;1.05;;
26977;SDS011;56314;48.088;11.642;2022-11-20T23:31:04;1.63;;;1.00;;
26977;SDS011;56314;48.088;11.642;2022-11-20T23:33:30;1.67;;;1.40;;
26977;SDS011;56314;48.088;11.642;2022-11-20T23:35:56;2.45;;;1.30;;
26977;SDS011;56314;48.088;11.642;2022-11-20T23:38:21;2.28;;;1.02;;
26977;SDS011;56314;48.088;11.642;2022-11-20T23:40:47;1.17;;;1.08;;
26977;SDS011;56314;48.088;11.642;2022-11-20T23:43:14;0.98;;;0.90;;
26977;SDS011;56314;48.088;11.642;2022-11-20T23:45:41;0.90;;;0.80;;
26977;SDS011;56314;48.088;11.642;2022-11-20T23:48:07;0.73;;;0.73;;
26977;SDS011;56314;48.088;11.642;2022-11-20T23:50:33;1.08;;;0.90;;
26977;SDS011;56314;48.088;11.642;2022-11-20T23:52:59;0.75;;;0.63;;
26977;SDS011;56314;48.088;11.642;2022-11-20T23:55:25;0.75;;;0.75;;
26977;SDS011;56314;48.088;11.642;2022-11-20T23:57:50;0.70;;;0.60;;
